QXE2286 KMFR-KSEA
Flight info
| Callsign | QXE2286 |
|---|---|
| Flight time | 1h 2m |
| Altitude | 17000 |
| Route | JKSN1 OED V595 CUTTR/N0422F310 RENAA/N0419F300 BTG HAWKZ8 |
| Aircraft | E75L/M-SDE3GILORVW/S |
Departure
| Time | 2026-04-24 04:45 |
|---|---|
| Airport | Rogue Valley International-Medford Airport (KMFR) |
Arrival
| Time | 2026-04-24 05:47 |
|---|---|
| Airport | Seattle–Tacoma International Airport (KSEA) |
| Time | Latitude | Longitude | Altitude | Speed | Heading |
|---|---|---|---|---|---|
| 2026-04-24 04:06 | 42.36904 | -122.87332 | 1313 ft | 0 kts | 247° |
| 2026-04-24 04:29 | 42.36911 | -122.87307 | 1323 ft | 4 kts | 252° |
| 2026-04-24 04:29 | 42.36917 | -122.87271 | 1323 ft | 4 kts | 268° |
| 2026-04-24 04:29 | 42.36910 | -122.87241 | 1323 ft | 4 kts | 323° |
| 2026-04-24 04:29 | 42.36901 | -122.87234 | 1323 ft | 1 kts | 338° |
| 2026-04-24 04:35 | 42.36903 | -122.87235 | 1323 ft | 1 kts | 338° |
| 2026-04-24 04:36 | 42.36923 | -122.87238 | 1323 ft | 7 kts | 1° |
| 2026-04-24 04:36 | 42.37020 | -122.87245 | 1323 ft | 21 kts | 347° |
| 2026-04-24 04:36 | 42.37190 | -122.87329 | 1323 ft | 28 kts | 340° |
| 2026-04-24 04:36 | 42.37376 | -122.87426 | 1321 ft | 29 kts | 339° |
| 2026-04-24 04:37 | 42.37564 | -122.87525 | 1317 ft | 23 kts | 338° |
| 2026-04-24 04:37 | 42.37718 | -122.87605 | 1316 ft | 25 kts | 339° |
| 2026-04-24 04:37 | 42.37881 | -122.87691 | 1316 ft | 25 kts | 339° |
| 2026-04-24 04:37 | 42.38048 | -122.87776 | 1312 ft | 27 kts | 340° |
| 2026-04-24 04:38 | 42.38226 | -122.87872 | 1306 ft | 30 kts | 338° |
| 2026-04-24 04:38 | 42.38421 | -122.87974 | 1300 ft | 22 kts | 339° |
| 2026-04-24 04:38 | 42.38510 | -122.88020 | 1298 ft | 13 kts | 338° |
| 2026-04-24 04:38 | 42.38522 | -122.88027 | 1298 ft | 0 kts | 338° |
| 2026-04-24 04:42 | 42.38538 | -122.88035 | 1298 ft | 4 kts | 339° |
| 2026-04-24 04:42 | 42.38555 | -122.88040 | 1298 ft | 2 kts | 2° |
| 2026-04-24 04:42 | 42.38572 | -122.88032 | 1298 ft | 2 kts | 35° |
| 2026-04-24 04:42 | 42.38579 | -122.88023 | 1297 ft | 1 kts | 52° |
| 2026-04-24 04:43 | 42.38593 | -122.87984 | 1298 ft | 9 kts | 72° |
| 2026-04-24 04:43 | 42.38590 | -122.87920 | 1299 ft | 6 kts | 114° |
| 2026-04-24 04:43 | 42.38576 | -122.87900 | 1300 ft | 0 kts | 149° |
| 2026-04-24 04:43 | 42.38574 | -122.87898 | 1300 ft | 1 kts | 149° |
| 2026-04-24 04:44 | 42.38569 | -122.87894 | 1300 ft | 1 kts | 153° |
| 2026-04-24 04:44 | 42.38563 | -122.87891 | 1300 ft | 1 kts | 158° |
| 2026-04-24 04:44 | 42.38484 | -122.87847 | 1301 ft | 44 kts | 158° |
| 2026-04-24 04:44 | 42.37945 | -122.87564 | 1314 ft | 120 kts | 159° |
| 2026-04-24 04:45 | 42.37024 | -122.87072 | 1639 ft | 156 kts | 158° |
| 2026-04-24 04:45 | 42.36001 | -122.86451 | 2416 ft | 159 kts | 141° |
| 2026-04-24 04:45 | 42.35637 | -122.85057 | 3047 ft | 180 kts | 82° |
| 2026-04-24 04:45 | 42.36304 | -122.83527 | 3565 ft | 200 kts | 35° |
| 2026-04-24 04:46 | 42.37627 | -122.83065 | 4623 ft | 210 kts | 352° |
| 2026-04-24 04:46 | 42.39164 | -122.83740 | 5176 ft | 255 kts | 338° |
| 2026-04-24 04:46 | 42.40846 | -122.85004 | 5644 ft | 305 kts | 320° |
| 2026-04-24 04:46 | 42.42548 | -122.87043 | 6339 ft | 340 kts | 320° |
| 2026-04-24 04:47 | 42.44467 | -122.89072 | 7360 ft | 363 kts | 327° |
| 2026-04-24 04:47 | 42.46834 | -122.90379 | 7887 ft | 374 kts | 349° |
| 2026-04-24 04:47 | 42.49433 | -122.90364 | 8439 ft | 371 kts | 11° |
| 2026-04-24 04:47 | 42.51647 | -122.89115 | 8916 ft | 330 kts | 32° |
| 2026-04-24 04:48 | 42.53513 | -122.87267 | 9430 ft | 334 kts | 37° |
| 2026-04-24 04:48 | 42.55348 | -122.85293 | 9958 ft | 340 kts | 38° |
| 2026-04-24 04:48 | 42.57213 | -122.83278 | 10451 ft | 344 kts | 36° |
| 2026-04-24 04:48 | 42.59210 | -122.81436 | 10941 ft | 349 kts | 32° |
| 2026-04-24 04:49 | 42.61225 | -122.79635 | 11435 ft | 354 kts | 32° |
| 2026-04-24 04:49 | 42.63310 | -122.77800 | 11941 ft | 359 kts | 32° |
| 2026-04-24 04:49 | 42.65426 | -122.75942 | 12453 ft | 364 kts | 31° |
| 2026-04-24 04:49 | 42.67675 | -122.74334 | 12986 ft | 368 kts | 24° |
| 2026-04-24 04:50 | 42.70014 | -122.72911 | 13518 ft | 373 kts | 22° |
| 2026-04-24 04:50 | 42.72436 | -122.71522 | 14039 ft | 378 kts | 21° |
| 2026-04-24 04:50 | 42.74947 | -122.70373 | 14526 ft | 382 kts | 17° |
| 2026-04-24 04:50 | 42.77499 | -122.69272 | 15020 ft | 387 kts | 16° |
| 2026-04-24 04:51 | 42.80070 | -122.68195 | 15513 ft | 391 kts | 16° |
| 2026-04-24 04:51 | 42.82673 | -122.67108 | 16009 ft | 395 kts | 16° |
| 2026-04-24 04:51 | 42.85351 | -122.65989 | 16531 ft | 399 kts | 16° |
| 2026-04-24 04:51 | 42.87983 | -122.64888 | 16885 ft | 405 kts | 16° |
| 2026-04-24 04:52 | 42.90672 | -122.63759 | 16965 ft | 403 kts | 16° |
| 2026-04-24 04:52 | 42.93347 | -122.62637 | 17012 ft | 402 kts | 16° |
| 2026-04-24 04:52 | 42.96018 | -122.61516 | 17024 ft | 401 kts | 16° |
| 2026-04-24 04:52 | 42.98696 | -122.60388 | 17043 ft | 401 kts | 16° |
| 2026-04-24 04:53 | 43.01374 | -122.59263 | 17036 ft | 401 kts | 16° |
| 2026-04-24 04:53 | 43.04039 | -122.58140 | 17030 ft | 401 kts | 16° |
| 2026-04-24 04:53 | 43.06709 | -122.57013 | 17038 ft | 401 kts | 16° |
| 2026-04-24 04:53 | 43.09325 | -122.55910 | 17041 ft | 401 kts | 15° |
| 2026-04-24 04:54 | 43.12001 | -122.54780 | 17028 ft | 401 kts | 15° |
| 2026-04-24 04:54 | 43.14673 | -122.53649 | 17044 ft | 401 kts | 15° |
| 2026-04-24 04:54 | 43.17305 | -122.52536 | 17041 ft | 401 kts | 15° |
| 2026-04-24 04:54 | 43.19976 | -122.51403 | 17032 ft | 401 kts | 15° |
| 2026-04-24 04:55 | 43.22633 | -122.50277 | 17047 ft | 401 kts | 15° |
| 2026-04-24 04:55 | 43.25300 | -122.49145 | 17046 ft | 401 kts | 15° |
| 2026-04-24 04:55 | 43.27970 | -122.48011 | 17035 ft | 400 kts | 15° |
| 2026-04-24 04:55 | 43.30639 | -122.46877 | 17048 ft | 400 kts | 15° |
| 2026-04-24 04:56 | 43.33295 | -122.45746 | 17044 ft | 400 kts | 15° |
| 2026-04-24 04:56 | 43.35963 | -122.44609 | 17045 ft | 400 kts | 15° |
| 2026-04-24 04:56 | 43.38594 | -122.43487 | 17053 ft | 400 kts | 15° |
| 2026-04-24 04:56 | 43.41264 | -122.42438 | 17039 ft | 398 kts | 9° |
| 2026-04-24 04:57 | 43.44012 | -122.42013 | 17054 ft | 397 kts | 2° |
| 2026-04-24 04:57 | 43.46781 | -122.41790 | 17072 ft | 397 kts | 1° |
| 2026-04-24 04:57 | 43.49545 | -122.41639 | 17067 ft | 396 kts | 359° |
| 2026-04-24 04:57 | 43.52299 | -122.41756 | 17054 ft | 395 kts | 356° |
| 2026-04-24 04:58 | 43.55033 | -122.41930 | 17054 ft | 395 kts | 355° |
| 2026-04-24 04:58 | 43.57791 | -122.42135 | 17071 ft | 395 kts | 355° |
| 2026-04-24 04:58 | 43.60538 | -122.42344 | 17066 ft | 395 kts | 355° |
| 2026-04-24 04:58 | 43.63223 | -122.42548 | 17061 ft | 395 kts | 355° |
| 2026-04-24 04:59 | 43.65936 | -122.42755 | 17066 ft | 394 kts | 355° |
| 2026-04-24 04:59 | 43.68681 | -122.42963 | 17068 ft | 394 kts | 355° |
| 2026-04-24 04:59 | 43.71339 | -122.43165 | 17068 ft | 394 kts | 355° |
| 2026-04-24 04:59 | 43.74098 | -122.43374 | 17071 ft | 394 kts | 355° |
| 2026-04-24 05:00 | 43.76847 | -122.43584 | 17070 ft | 394 kts | 355° |
| 2026-04-24 05:00 | 43.79584 | -122.43792 | 17075 ft | 394 kts | 355° |
| 2026-04-24 05:00 | 43.82306 | -122.44000 | 17071 ft | 395 kts | 355° |
| 2026-04-24 05:00 | 43.85034 | -122.44207 | 17071 ft | 394 kts | 355° |
| 2026-04-24 05:01 | 43.87772 | -122.44417 | 17074 ft | 394 kts | 355° |
| 2026-04-24 05:01 | 43.90511 | -122.44625 | 17079 ft | 393 kts | 355° |
| 2026-04-24 05:01 | 43.93251 | -122.44834 | 17091 ft | 393 kts | 355° |
| 2026-04-24 05:01 | 43.95971 | -122.45042 | 17081 ft | 393 kts | 355° |
| 2026-04-24 05:02 | 43.98702 | -122.45252 | 17073 ft | 392 kts | 355° |
| 2026-04-24 05:02 | 44.01423 | -122.45460 | 17079 ft | 393 kts | 355° |
| 2026-04-24 05:02 | 44.04008 | -122.45658 | 17080 ft | 393 kts | 355° |
| 2026-04-24 05:02 | 44.05113 | -122.45743 | 17085 ft | 393 kts | 355° |
| 2026-04-24 05:03 | 44.07833 | -122.45952 | 17085 ft | 393 kts | 355° |
| 2026-04-24 05:03 | 44.10536 | -122.46160 | 17078 ft | 392 kts | 355° |
| 2026-04-24 05:03 | 44.13264 | -122.46370 | 17082 ft | 392 kts | 355° |
| 2026-04-24 05:03 | 44.15995 | -122.46581 | 17087 ft | 392 kts | 355° |
| 2026-04-24 05:04 | 44.18632 | -122.46783 | 17084 ft | 393 kts | 355° |
| 2026-04-24 05:04 | 44.21365 | -122.46994 | 17081 ft | 392 kts | 355° |
| 2026-04-24 05:04 | 44.24086 | -122.47206 | 17122 ft | 385 kts | 356° |
| 2026-04-24 05:04 | 44.26749 | -122.47410 | 17090 ft | 383 kts | 356° |
| 2026-04-24 05:05 | 44.27154 | -122.47440 | 17088 ft | 383 kts | 356° |
| 2026-04-24 05:05 | 44.28665 | -122.47557 | 17098 ft | 384 kts | 356° |
| 2026-04-24 05:05 | 44.31332 | -122.47763 | 17088 ft | 384 kts | 356° |
| 2026-04-24 05:06 | 44.34009 | -122.47970 | 17098 ft | 384 kts | 356° |
| 2026-04-24 05:06 | 44.36680 | -122.48178 | 17100 ft | 385 kts | 356° |
| 2026-04-24 05:06 | 44.39348 | -122.48387 | 17096 ft | 385 kts | 356° |
| 2026-04-24 05:06 | 44.40995 | -122.48514 | 17084 ft | 384 kts | 356° |
| 2026-04-24 05:07 | 44.43200 | -122.48685 | 17089 ft | 384 kts | 356° |
| 2026-04-24 05:07 | 44.45876 | -122.48893 | 17106 ft | 385 kts | 356° |
| 2026-04-24 05:07 | 44.48551 | -122.49101 | 17091 ft | 385 kts | 356° |
| 2026-04-24 05:07 | 44.51229 | -122.49309 | 17086 ft | 385 kts | 356° |
| 2026-04-24 05:08 | 44.53901 | -122.49520 | 17092 ft | 385 kts | 356° |
| 2026-04-24 05:08 | 44.56579 | -122.49729 | 17091 ft | 385 kts | 356° |
| 2026-04-24 05:08 | 44.59255 | -122.49937 | 17094 ft | 385 kts | 356° |
| 2026-04-24 05:08 | 44.61929 | -122.50145 | 17093 ft | 385 kts | 356° |
| 2026-04-24 05:09 | 44.64557 | -122.50352 | 17094 ft | 385 kts | 356° |
| 2026-04-24 05:09 | 44.67284 | -122.50566 | 17100 ft | 385 kts | 356° |
| 2026-04-24 05:09 | 44.69922 | -122.50773 | 17092 ft | 385 kts | 356° |
| 2026-04-24 05:09 | 44.71725 | -122.50913 | 17095 ft | 385 kts | 356° |
| 2026-04-24 05:10 | 44.75269 | -122.51193 | 17047 ft | 383 kts | 357° |
| 2026-04-24 05:10 | 44.77912 | -122.51401 | 16047 ft | 380 kts | 357° |
| 2026-04-24 05:10 | 44.80527 | -122.51605 | 15173 ft | 374 kts | 357° |
| 2026-04-24 05:10 | 44.83119 | -122.51811 | 14277 ft | 369 kts | 357° |
| 2026-04-24 05:11 | 44.85661 | -122.52009 | 13460 ft | 364 kts | 356° |
| 2026-04-24 05:11 | 44.87333 | -122.52141 | 13333 ft | 366 kts | 356° |
| 2026-04-24 05:11 | 44.89873 | -122.52343 | 13213 ft | 364 kts | 356° |
| 2026-04-24 05:11 | 44.92000 | -122.52511 | 13159 ft | 363 kts | 356° |
| 2026-04-24 05:12 | 44.92168 | -122.52525 | 13158 ft | 363 kts | 356° |
| 2026-04-24 05:12 | 44.94265 | -122.52692 | 13104 ft | 363 kts | 356° |
| 2026-04-24 05:12 | 44.96763 | -122.52890 | 13040 ft | 361 kts | 356° |
| 2026-04-24 05:12 | 44.99290 | -122.53089 | 13018 ft | 362 kts | 356° |
| 2026-04-24 05:13 | 45.04318 | -122.53488 | 13015 ft | 362 kts | 356° |
| 2026-04-24 05:13 | 45.06835 | -122.53689 | 13004 ft | 362 kts | 356° |
| 2026-04-24 05:13 | 45.09337 | -122.53886 | 13012 ft | 362 kts | 356° |
| 2026-04-24 05:14 | 45.11871 | -122.54090 | 13000 ft | 362 kts | 356° |
| 2026-04-24 05:14 | 45.14386 | -122.54289 | 13007 ft | 362 kts | 356° |
| 2026-04-24 05:14 | 45.16865 | -122.54487 | 13006 ft | 362 kts | 356° |
| 2026-04-24 05:14 | 45.19375 | -122.54686 | 13006 ft | 362 kts | 356° |
| 2026-04-24 05:15 | 45.21897 | -122.54888 | 13000 ft | 362 kts | 356° |
| 2026-04-24 05:15 | 45.24413 | -122.55089 | 13014 ft | 361 kts | 356° |
| 2026-04-24 05:15 | 45.26927 | -122.55290 | 13005 ft | 362 kts | 356° |
| 2026-04-24 05:15 | 45.29432 | -122.55491 | 13013 ft | 361 kts | 356° |
| 2026-04-24 05:16 | 45.31952 | -122.55692 | 13003 ft | 361 kts | 356° |
| 2026-04-24 05:16 | 45.34463 | -122.55894 | 12999 ft | 361 kts | 356° |
| 2026-04-24 05:16 | 45.36978 | -122.56096 | 13003 ft | 361 kts | 356° |
| 2026-04-24 05:16 | 45.39383 | -122.56290 | 13007 ft | 361 kts | 356° |
| 2026-04-24 05:17 | 45.41956 | -122.56496 | 13005 ft | 361 kts | 356° |
| 2026-04-24 05:17 | 45.44465 | -122.56699 | 12994 ft | 361 kts | 356° |
| 2026-04-24 05:17 | 45.46972 | -122.56901 | 13017 ft | 361 kts | 356° |
| 2026-04-24 05:17 | 45.49483 | -122.57103 | 13009 ft | 361 kts | 356° |
| 2026-04-24 05:18 | 45.51985 | -122.57305 | 13000 ft | 361 kts | 356° |
| 2026-04-24 05:18 | 45.54497 | -122.57508 | 13010 ft | 361 kts | 356° |
| 2026-04-24 05:18 | 45.57016 | -122.57711 | 13018 ft | 361 kts | 356° |
| 2026-04-24 05:18 | 45.59492 | -122.57912 | 13003 ft | 361 kts | 356° |
| 2026-04-24 05:19 | 45.61994 | -122.58114 | 13010 ft | 360 kts | 356° |
| 2026-04-24 05:19 | 45.64497 | -122.58319 | 13011 ft | 360 kts | 356° |
| 2026-04-24 05:19 | 45.66996 | -122.58520 | 13022 ft | 360 kts | 356° |
| 2026-04-24 05:19 | 45.69504 | -122.58724 | 13020 ft | 360 kts | 356° |
| 2026-04-24 05:20 | 45.72003 | -122.58937 | 13029 ft | 360 kts | 356° |
| 2026-04-24 05:20 | 45.74499 | -122.59193 | 13020 ft | 360 kts | 354° |
| 2026-04-24 05:20 | 45.76965 | -122.59704 | 12353 ft | 356 kts | 350° |
| 2026-04-24 05:20 | 45.79401 | -122.60288 | 11454 ft | 352 kts | 350° |
| 2026-04-24 05:21 | 45.81785 | -122.60877 | 10610 ft | 348 kts | 350° |
| 2026-04-24 05:21 | 45.84168 | -122.61467 | 10237 ft | 348 kts | 350° |
| 2026-04-24 05:21 | 45.86550 | -122.62058 | 10114 ft | 346 kts | 350° |
| 2026-04-24 05:21 | 45.88923 | -122.62646 | 10040 ft | 344 kts | 350° |
| 2026-04-24 05:22 | 45.91258 | -122.63226 | 10007 ft | 345 kts | 350° |
| 2026-04-24 05:22 | 45.93621 | -122.63811 | 10010 ft | 345 kts | 350° |
| 2026-04-24 05:22 | 45.95989 | -122.64400 | 10006 ft | 345 kts | 350° |
| 2026-04-24 05:22 | 45.98341 | -122.64985 | 10000 ft | 345 kts | 350° |
| 2026-04-24 05:23 | 46.00711 | -122.65573 | 10024 ft | 345 kts | 350° |
| 2026-04-24 05:23 | 46.03083 | -122.66165 | 10021 ft | 345 kts | 350° |
| 2026-04-24 05:23 | 46.05440 | -122.66757 | 9996 ft | 345 kts | 349° |
| 2026-04-24 05:23 | 46.07772 | -122.67395 | 10005 ft | 344 kts | 351° |
| 2026-04-24 05:24 | 46.10177 | -122.67889 | 10007 ft | 345 kts | 352° |
| 2026-04-24 05:24 | 46.12551 | -122.68366 | 10016 ft | 344 kts | 352° |
| 2026-04-24 05:24 | 46.14499 | -122.68751 | 10032 ft | 344 kts | 352° |
| 2026-04-24 05:24 | 46.16908 | -122.69227 | 10016 ft | 344 kts | 352° |
| 2026-04-24 05:25 | 46.19241 | -122.69687 | 10014 ft | 344 kts | 352° |
| 2026-04-24 05:25 | 46.21607 | -122.70156 | 10005 ft | 344 kts | 352° |
| 2026-04-24 05:25 | 46.23982 | -122.70626 | 10017 ft | 343 kts | 352° |
| 2026-04-24 05:25 | 46.26353 | -122.71095 | 10011 ft | 343 kts | 352° |
| 2026-04-24 05:26 | 46.28708 | -122.71558 | 10015 ft | 343 kts | 352° |
| 2026-04-24 05:26 | 46.31092 | -122.71996 | 10004 ft | 343 kts | 352° |
| 2026-04-24 05:26 | 46.33474 | -122.72242 | 10001 ft | 343 kts | 357° |
| 2026-04-24 05:26 | 46.35855 | -122.72358 | 10012 ft | 343 kts | 357° |
| 2026-04-24 05:27 | 46.38251 | -122.72452 | 10012 ft | 343 kts | 358° |
| 2026-04-24 05:27 | 46.40610 | -122.72534 | 9999 ft | 343 kts | 358° |
| 2026-04-24 05:27 | 46.42999 | -122.72619 | 10000 ft | 343 kts | 358° |
| 2026-04-24 05:27 | 46.45380 | -122.72706 | 10014 ft | 342 kts | 358° |
| 2026-04-24 05:28 | 46.47756 | -122.72787 | 10005 ft | 342 kts | 358° |
| 2026-04-24 05:28 | 46.50133 | -122.72872 | 9996 ft | 341 kts | 358° |
| 2026-04-24 05:28 | 46.52503 | -122.72957 | 10006 ft | 341 kts | 358° |
| 2026-04-24 05:28 | 46.54872 | -122.73041 | 10014 ft | 341 kts | 358° |
| 2026-04-24 05:29 | 46.57247 | -122.73128 | 10007 ft | 341 kts | 358° |
| 2026-04-24 05:29 | 46.59618 | -122.73213 | 10000 ft | 340 kts | 358° |
| 2026-04-24 05:29 | 46.61988 | -122.73298 | 10014 ft | 340 kts | 358° |
| 2026-04-24 05:29 | 46.64364 | -122.73385 | 10014 ft | 341 kts | 358° |
| 2026-04-24 05:30 | 46.66730 | -122.73473 | 9995 ft | 341 kts | 358° |
| 2026-04-24 05:30 | 46.69067 | -122.73556 | 10006 ft | 340 kts | 358° |
| 2026-04-24 05:30 | 46.71466 | -122.73641 | 10021 ft | 340 kts | 358° |
| 2026-04-24 05:30 | 46.73800 | -122.73727 | 10008 ft | 339 kts | 358° |
| 2026-04-24 05:31 | 46.76150 | -122.73417 | 9995 ft | 340 kts | 12° |
| 2026-04-24 05:31 | 46.78402 | -122.72332 | 10014 ft | 340 kts | 20° |
| 2026-04-24 05:31 | 46.80559 | -122.70896 | 10006 ft | 341 kts | 25° |
| 2026-04-24 05:31 | 46.82581 | -122.69110 | 9993 ft | 343 kts | 34° |
| 2026-04-24 05:32 | 46.84394 | -122.66821 | 10020 ft | 344 kts | 39° |
| 2026-04-24 05:32 | 46.86163 | -122.64454 | 10001 ft | 343 kts | 40° |
| 2026-04-24 05:32 | 46.87893 | -122.62080 | 9977 ft | 333 kts | 40° |
| 2026-04-24 05:32 | 46.89570 | -122.59853 | 9974 ft | 322 kts | 40° |
| 2026-04-24 05:33 | 46.91159 | -122.57520 | 9982 ft | 324 kts | 42° |
| 2026-04-24 05:33 | 46.92723 | -122.55179 | 9991 ft | 324 kts | 43° |
| 2026-04-24 05:33 | 46.94292 | -122.52817 | 9678 ft | 323 kts | 43° |
| 2026-04-24 05:34 | 46.97015 | -122.47651 | 9072 ft | 324 kts | 58° |
| 2026-04-24 05:34 | 46.98044 | -122.44731 | 9019 ft | 323 kts | 59° |
| 2026-04-24 05:34 | 46.99176 | -122.41888 | 8992 ft | 321 kts | 54° |
| 2026-04-24 05:34 | 47.00451 | -122.39195 | 9012 ft | 321 kts | 51° |
| 2026-04-24 05:35 | 47.01906 | -122.36758 | 9003 ft | 318 kts | 43° |
| 2026-04-24 05:35 | 47.03602 | -122.34723 | 8988 ft | 315 kts | 26° |
| 2026-04-24 05:35 | 47.05596 | -122.33393 | 9009 ft | 316 kts | 30° |
| 2026-04-24 05:35 | 47.07177 | -122.31136 | 9010 ft | 320 kts | 53° |
| 2026-04-24 05:36 | 47.08477 | -122.28553 | 8996 ft | 318 kts | 41° |
| 2026-04-24 05:36 | 47.10363 | -122.26956 | 9014 ft | 314 kts | 16° |
| 2026-04-24 05:36 | 47.12522 | -122.26773 | 8852 ft | 313 kts | 353° |
| 2026-04-24 05:36 | 47.14570 | -122.27875 | 8215 ft | 310 kts | 336° |
| 2026-04-24 05:37 | 47.16382 | -122.29231 | 8246 ft | 270 kts | 336° |
| 2026-04-24 05:37 | 47.17978 | -122.30329 | 8248 ft | 231 kts | 340° |
| 2026-04-24 05:37 | 47.19386 | -122.31108 | 7813 ft | 218 kts | 346° |
| 2026-04-24 05:37 | 47.20861 | -122.31658 | 7167 ft | 217 kts | 351° |
| 2026-04-24 05:38 | 47.22350 | -122.31944 | 6550 ft | 215 kts | 359° |
| 2026-04-24 05:38 | 47.23840 | -122.32007 | 5906 ft | 214 kts | 359° |
| 2026-04-24 05:38 | 47.25325 | -122.31993 | 5277 ft | 214 kts | 2° |
| 2026-04-24 05:38 | 47.26813 | -122.31947 | 4641 ft | 214 kts | 1° |
| 2026-04-24 05:39 | 47.28306 | -122.31930 | 4178 ft | 216 kts | 1° |
| 2026-04-24 05:39 | 47.29864 | -122.31923 | 4387 ft | 219 kts | 1° |
| 2026-04-24 05:39 | 47.31414 | -122.31914 | 4591 ft | 219 kts | 1° |
| 2026-04-24 05:39 | 47.32946 | -122.31898 | 4663 ft | 219 kts | 1° |
| 2026-04-24 05:40 | 47.34473 | -122.31886 | 4587 ft | 219 kts | 1° |
| 2026-04-24 05:40 | 47.35989 | -122.31874 | 4337 ft | 216 kts | 1° |
| 2026-04-24 05:40 | 47.37484 | -122.31863 | 4139 ft | 214 kts | 1° |
| 2026-04-24 05:40 | 47.38984 | -122.31850 | 4058 ft | 216 kts | 1° |
| 2026-04-24 05:41 | 47.40489 | -122.31838 | 4017 ft | 216 kts | 0° |
| 2026-04-24 05:41 | 47.42000 | -122.31826 | 4004 ft | 217 kts | 1° |
| 2026-04-24 05:41 | 47.43486 | -122.31813 | 3990 ft | 216 kts | 1° |
| 2026-04-24 05:41 | 47.44993 | -122.31800 | 4003 ft | 216 kts | 0° |
| 2026-04-24 05:42 | 47.33802 | -122.31988 | 4005 ft | 5933 kts | 0° |
| 2026-04-24 05:42 | 47.25162 | -122.32149 | 4016 ft | 219 kts | 8° |
| 2026-04-24 05:42 | 47.26659 | -122.31906 | 3959 ft | 213 kts | 3° |
| 2026-04-24 05:42 | 47.28043 | -122.31886 | 3671 ft | 193 kts | 360° |
| 2026-04-24 05:43 | 47.29423 | -122.31922 | 3162 ft | 191 kts | 0° |
| 2026-04-24 05:43 | 47.30694 | -122.31900 | 3065 ft | 177 kts | 1° |
| 2026-04-24 05:43 | 47.31849 | -122.31887 | 2816 ft | 158 kts | 0° |
| 2026-04-24 05:43 | 47.32915 | -122.31889 | 2584 ft | 148 kts | 0° |
| 2026-04-24 05:44 | 47.33928 | -122.31881 | 2394 ft | 144 kts | 0° |
| 2026-04-24 05:44 | 47.34930 | -122.31872 | 2216 ft | 145 kts | 0° |
| 2026-04-24 05:44 | 47.35945 | -122.31866 | 2035 ft | 145 kts | 0° |
| 2026-04-24 05:44 | 47.36953 | -122.31858 | 1847 ft | 145 kts | 0° |
| 2026-04-24 05:45 | 47.37944 | -122.31851 | 1644 ft | 139 kts | 0° |
| 2026-04-24 05:45 | 47.38883 | -122.31860 | 1407 ft | 134 kts | 359° |
| 2026-04-24 05:45 | 47.39820 | -122.31900 | 1217 ft | 132 kts | 0° |
| 2026-04-24 05:45 | 47.40738 | -122.31863 | 1114 ft | 135 kts | 2° |
| 2026-04-24 05:46 | 47.41682 | -122.31856 | 993 ft | 136 kts | 358° |
| 2026-04-24 05:46 | 47.42640 | -122.31823 | 800 ft | 137 kts | 1° |
| 2026-04-24 05:46 | 47.43572 | -122.31822 | 573 ft | 133 kts | 1° |
| 2026-04-24 05:46 | 47.44485 | -122.31818 | 421 ft | 123 kts | 0° |
| 2026-04-24 05:47 | 47.45209 | -122.31798 | 414 ft | 80 kts | 1° |
| 2026-04-24 05:47 | 47.45644 | -122.31790 | 422 ft | 49 kts | 2° |
| 2026-04-24 05:47 | 47.45857 | -122.31726 | 425 ft | 21 kts | 24° |
| 2026-04-24 05:47 | 47.45970 | -122.31596 | 428 ft | 20 kts | 52° |
| 2026-04-24 05:48 | 47.46007 | -122.31406 | 422 ft | 20 kts | 90° |
| 2026-04-24 05:48 | 47.46006 | -122.31190 | 427 ft | 23 kts | 90° |
| 2026-04-24 05:48 | 47.46006 | -122.30946 | 422 ft | 24 kts | 90° |
| 2026-04-24 05:48 | 47.46005 | -122.30684 | 426 ft | 18 kts | 101° |
| 2026-04-24 05:49 | 47.45918 | -122.30612 | 424 ft | 15 kts | 180° |
| 2026-04-24 05:49 | 47.45809 | -122.30613 | 421 ft | 17 kts | 180° |
| 2026-04-24 05:49 | 47.45689 | -122.30612 | 422 ft | 18 kts | 181° |
| 2026-04-24 05:49 | 47.45562 | -122.30615 | 427 ft | 20 kts | 180° |
| 2026-04-24 05:50 | 47.45419 | -122.30616 | 426 ft | 21 kts | 180° |
| 2026-04-24 05:50 | 47.45268 | -122.30619 | 429 ft | 22 kts | 180° |
| 2026-04-24 05:50 | 47.45108 | -122.30621 | 422 ft | 24 kts | 180° |
| 2026-04-24 05:50 | 47.44935 | -122.30622 | 425 ft | 26 kts | 180° |
| 2026-04-24 05:51 | 47.44751 | -122.30622 | 428 ft | 27 kts | 180° |
| 2026-04-24 05:51 | 47.44579 | -122.30622 | 424 ft | 12 kts | 180° |
| 2026-04-24 05:51 | 47.44490 | -122.30618 | 423 ft | 11 kts | 165° |
| 2026-04-24 05:51 | 47.44458 | -122.30558 | 426 ft | 7 kts | 109° |
| 2026-04-24 05:52 | 47.44456 | -122.30501 | 428 ft | 4 kts | 84° |
| 2026-04-24 05:52 | 47.44454 | -122.30480 | 429 ft | 5 kts | 104° |
| 2026-04-24 05:52 | 47.44448 | -122.30426 | 425 ft | 1 kts | 94° |
| 2026-04-24 05:52 | 47.44448 | -122.30418 | 430 ft | 0 kts | 92° |